Time;durP1;ratioP1;P1;durP2;ratioP2;P2;SDS_P1;SDS_P2;PMS_P1;PMS_P2;Temp;Humidity;BMP_temperature;BMP_pressure;BME280_temperature;BME280_humidity;BME280_pressure;Samples;Min_cycle;Max_cycle;Signal;HPM_P1;HPM_P2
2022/01/23 00:01:14;;;;;;;19.55;8.82;;;;;;;;;;5077394;28;20062;-92
2022/01/23 00:03:45;;;;;;;16.80;8.52;;;;;;;;;;5060915;28;20532;-93
2022/01/23 00:06:11;;;;;;;18.83;9.90;;;;;;;;;;5079391;28;20035;-92
2022/01/23 00:08:37;;;;;;;16.08;9.55;;;;;;;;;;5079843;28;20072;-92
2022/01/23 00:11:04;;;;;;;17.67;9.63;;;;;;;;;;5076294;28;20032;-92
2022/01/23 00:17:14;;;;;;;18.45;8.82;;;;;;;;;;5076424;28;20043;-92
2022/01/23 00:19:01;;;;;;;21.50;10.13;;;;;;;;;;5077717;28;20499;-92
2022/01/23 00:21:27;;;;;;;19.67;10.25;;;;;;;;;;5062264;28;20036;-92
2022/01/23 00:31:52;;;;;;;17.40;9.27;;;;;;;;;;5076512;28;20051;-92
2022/01/23 00:34:19;;;;;;;20.35;9.43;;;;;;;;;;5076841;28;20043;-92
2022/01/23 00:36:45;;;;;;;15.00;8.10;;;;;;;;;;5064088;28;20049;-93
2022/01/23 00:39:12;;;;;;;20.63;9.40;;;;;;;;;;5056253;28;20032;-92
2022/01/23 00:41:38;;;;;;;13.73;8.43;;;;;;;;;;5040688;28;20032;-92
2022/01/23 00:44:04;;;;;;;14.57;8.48;;;;;;;;;;5055835;28;20046;-93
2022/01/23 00:46:38;;;;;;;13.38;8.65;;;;;;;;;;5039303;28;20036;-93
2022/01/23 00:51:35;;;;;;;17.55;8.63;;;;;;;;;;5055277;28;20508;-92
2022/01/23 00:54:03;;;;;;;15.40;8.77;;;;;;;;;;5038923;28;20041;-92
2022/01/23 00:56:30;;;;;;;14.45;7.75;;;;;;;;;;5055480;28;20415;-92
2022/01/23 00:58:56;;;;;;;16.52;8.32;;;;;;;;;;5038188;28;20036;-92
2022/01/23 01:01:22;;;;;;;15.20;7.82;;;;;;;;;;5054687;28;20040;-92
2022/01/23 01:03:49;;;;;;;17.00;8.13;;;;;;;;;;5054702;28;20044;-93
2022/01/23 01:06:17;;;;;;;16.38;8.32;;;;;;;;;;5054304;28;20263;-93
2022/01/23 01:08:44;;;;;;;16.02;8.80;;;;;;;;;;5037566;28;20404;-92
2022/01/23 01:11:39;;;;;;;16.10;9.30;;;;;;;;;;5037744;28;20040;-92
2022/01/23 01:38:03;;;;;;;;;;;;;;;;;;5075463;28;20526;-93
2022/01/23 01:40:30;;;;;;;15.88;7.45;;;;;;;;;;5109605;28;20319;-93
2022/01/23 01:42:56;;;;;;;19.83;8.63;;;;;;;;;;5091823;28;20122;-93
2022/01/23 01:45:33;;;;;;;14.85;8.10;;;;;;;;;;5109018;28;20302;-93
2022/01/23 01:48:01;;;;;;;16.70;8.52;;;;;;;;;;5092004;28;20048;-93
2022/01/23 01:50:27;;;;;;;14.38;7.57;;;;;;;;;;5091746;28;20073;-92
2022/01/23 01:52:54;;;;;;;16.85;8.23;;;;;;;;;;5108342;28;20519;-92
2022/01/23 01:55:31;;;;;;;24.67;8.55;;;;;;;;;;5091276;28;20048;-93
2022/01/23 01:58:03;;;;;;;18.70;8.98;;;;;;;;;;5109121;28;20044;-93
2022/01/23 02:08:40;;;;;;;15.82;7.75;;;;;;;;;;5091976;28;20075;-92
2022/01/23 02:11:15;;;;;;;14.23;7.53;;;;;;;;;;5090091;28;20139;-92
2022/01/23 02:13:51;;;;;;;19.58;7.53;;;;;;;;;;5093855;28;20043;-92
2022/01/23 02:57:21;;;;;;;23.52;10.52;;;;;;;;;;5036897;28;20041;-91
2022/01/23 02:59:49;;;;;;;16.52;9.15;;;;;;;;;;5019797;28;20033;-91
2022/01/23 03:02:33;;;;;;;15.93;8.63;;;;;;;;;;5066475;28;20208;-92
2022/01/23 03:05:02;;;;;;;15.63;8.30;;;;;;;;;;5080816;28;20051;-92
2022/01/23 03:10:19;;;;;;;17.33;8.00;;;;;;;;;;5095177;28;20499;-93
2022/01/23 03:26:58;;;;;;;;;;;;;;;;;;4984867;28;20066;-93
2022/01/23 03:29:28;;;;;;;26.73;9.35;;;;;;;;;;5076529;28;19912;-92
2022/01/23 03:34:23;;;;;;;19.35;9.85;;;;;;;;;;5099945;28;20046;-92
2022/01/23 03:36:50;;;;;;;20.52;9.90;;;;;;;;;;5109506;28;20044;-92
2022/01/23 03:39:16;;;;;;;21.73;9.63;;;;;;;;;;5082854;28;20094;-92
2022/01/23 03:41:43;;;;;;;16.60;9.13;;;;;;;;;;5081219;28;20043;-92
2022/01/23 03:44:10;;;;;;;16.00;8.98;;;;;;;;;;5093275;28;20043;-93
2022/01/23 03:47:02;;;;;;;14.70;8.57;;;;;;;;;;5093237;28;20487;-92
2022/01/23 03:49:31;;;;;;;20.65;9.57;;;;;;;;;;5076348;28;20403;-92
2022/01/23 03:52:00;;;;;;;21.63;9.43;;;;;;;;;;5076664;28;20032;-93
2022/01/23 03:54:27;;;;;;;18.23;9.30;;;;;;;;;;5098554;28;20062;-93
2022/01/23 03:56:54;;;;;;;17.38;9.35;;;;;;;;;;5083386;28;20036;-92
2022/01/23 03:59:21;;;;;;;24.63;10.02;;;;;;;;;;5082966;28;20459;-92
2022/01/23 04:01:47;;;;;;;25.50;9.77;;;;;;;;;;5094493;28;20126;-92
2022/01/23 04:04:28;;;;;;;16.02;9.25;;;;;;;;;;5092745;28;20098;-91
2022/01/23 04:06:54;;;;;;;22.05;9.80;;;;;;;;;;5092775;28;20044;-92
2022/01/23 04:09:20;;;;;;;19.10;9.82;;;;;;;;;;5092760;28;20040;-92
2022/01/23 04:11:47;;;;;;;18.40;9.55;;;;;;;;;;5092831;28;20044;-93
2022/01/23 04:14:16;;;;;;;18.70;9.12;;;;;;;;;;5078754;28;1163044;-85
2022/01/23 04:19:41;;;;;;;18.35;9.23;;;;;;;;;;5093665;28;20044;-93
2022/01/23 04:47:23;;;;;;;17.88;8.98;;;;;;;;;;5126273;27;20035;-92
2022/01/23 05:00:35;;;;;;;16.63;8.82;;;;;;;;;;5091584;28;19923;-92
2022/01/23 05:05:43;;;;;;;19.83;8.88;;;;;;;;;;5092422;28;20085;-92
2022/01/23 05:08:16;;;;;;;18.33;8.93;;;;;;;;;;5092253;28;20109;-92
2022/01/23 05:10:42;;;;;;;20.73;9.45;;;;;;;;;;5109164;28;20036;-93
2022/01/23 05:13:09;;;;;;;15.10;8.55;;;;;;;;;;5126311;27;20036;-92
2022/01/23 05:15:36;;;;;;;17.50;8.60;;;;;;;;;;5125761;27;20060;-92
2022/01/23 05:18:02;;;;;;;14.80;7.63;;;;;;;;;;5091860;28;20505;-92
2022/01/23 05:20:29;;;;;;;16.65;8.98;;;;;;;;;;5125081;27;20085;-92
2022/01/23 05:23:02;;;;;;;19.40;7.68;;;;;;;;;;5090850;28;20036;-92
2022/01/23 05:25:31;;;;;;;13.30;8.02;;;;;;;;;;5091033;28;20129;-92
2022/01/23 05:27:57;;;;;;;17.98;9.40;;;;;;;;;;5090771;28;20043;-92
2022/01/23 05:30:23;;;;;;;19.50;8.65;;;;;;;;;;5124964;27;20046;-93
2022/01/23 05:32:49;;;;;;;14.93;8.10;;;;;;;;;;5108874;28;20040;-93
2022/01/23 05:35:21;;;;;;;16.02;8.38;;;;;;;;;;5125556;27;20135;-93
2022/01/23 05:37:48;;;;;;;17.88;9.18;;;;;;;;;;5107409;28;20078;-92
2022/01/23 05:40:16;;;;;;;17.70;8.40;;;;;;;;;;5089895;28;20122;-91
2022/01/23 05:42:42;;;;;;;15.98;8.07;;;;;;;;;;5090429;28;20051;-92
2022/01/23 05:45:09;;;;;;;18.85;8.30;;;;;;;;;;5107926;28;20492;-92
2022/01/23 05:47:36;;;;;;;16.73;7.97;;;;;;;;;;5107647;28;20040;-92
2022/01/23 05:50:03;;;;;;;17.58;8.68;;;;;;;;;;5107463;28;20094;-92
2022/01/23 05:52:31;;;;;;;20.38;9.20;;;;;;;;;;5107412;28;20036;-91
2022/01/23 05:54:57;;;;;;;14.20;8.18;;;;;;;;;;5090459;28;20446;-92
2022/01/23 05:57:23;;;;;;;15.15;8.20;;;;;;;;;;5124766;27;20040;-92
2022/01/23 05:59:50;;;;;;;16.98;7.97;;;;;;;;;;5124962;28;20036;-92
2022/01/23 06:02:16;;;;;;;18.58;8.43;;;;;;;;;;5107282;28;20040;-92
2022/01/23 06:04:42;;;;;;;21.70;8.88;;;;;;;;;;5108159;28;20051;-92
2022/01/23 06:07:09;;;;;;;15.30;7.72;;;;;;;;;;5124658;28;20122;-92
2022/01/23 06:09:39;;;;;;;16.42;8.75;;;;;;;;;;5106537;28;20040;-92
2022/01/23 06:12:06;;;;;;;15.75;8.68;;;;;;;;;;5107027;28;20051;-91
2022/01/23 06:14:32;;;;;;;19.30;9.30;;;;;;;;;;5123820;28;20062;-92
2022/01/23 06:16:58;;;;;;;18.95;9.43;;;;;;;;;;5106354;28;20044;-92
2022/01/23 06:19:24;;;;;;;17.90;8.25;;;;;;;;;;5090189;28;20119;-92
2022/01/23 06:21:51;;;;;;;16.10;8.40;;;;;;;;;;5106842;28;20032;-91
2022/01/23 06:24:28;;;;;;;18.75;9.65;;;;;;;;;;5090247;28;20376;-92
2022/01/23 06:26:56;;;;;;;20.63;8.77;;;;;;;;;;5090363;28;20522;-91
2022/01/23 06:29:23;;;;;;;17.95;8.50;;;;;;;;;;5072922;28;20039;-92
2022/01/23 06:31:50;;;;;;;16.92;8.70;;;;;;;;;;5106835;28;20036;-91
2022/01/23 06:34:17;;;;;;;22.65;9.73;;;;;;;;;;5106366;28;20040;-92
2022/01/23 06:36:43;;;;;;;15.98;8.75;;;;;;;;;;5089039;28;20067;-92
2022/01/23 06:39:11;;;;;;;16.90;9.00;;;;;;;;;;5123946;28;20032;-92
2022/01/23 06:41:37;;;;;;;17.67;8.82;;;;;;;;;;5086857;28;20040;-93
2022/01/23 06:44:04;;;;;;;15.75;8.00;;;;;;;;;;5071146;28;20036;-92
2022/01/23 06:46:31;;;;;;;15.10;8.30;;;;;;;;;;5072392;28;20396;-92
2022/01/23 06:48:57;;;;;;;17.67;8.43;;;;;;;;;;5071530;28;20127;-93
2022/01/23 06:51:23;;;;;;;18.27;9.45;;;;;;;;;;5071341;28;20079;-93
2022/01/23 06:53:50;;;;;;;16.63;8.70;;;;;;;;;;5071276;28;20112;-93
2022/01/23 06:56:16;;;;;;;17.38;8.60;;;;;;;;;;5071310;28;20503;-93
2022/01/23 06:58:42;;;;;;;23.05;9.73;;;;;;;;;;5072853;28;20048;-93
2022/01/23 07:01:09;;;;;;;17.38;8.63;;;;;;;;;;5075151;28;20044;-92
2022/01/23 07:03:35;;;;;;;18.23;8.50;;;;;;;;;;5075049;28;20092;-93
2022/01/23 07:06:01;;;;;;;18.30;9.18;;;;;;;;;;5074734;28;20048;-93
2022/01/23 07:08:28;;;;;;;15.02;7.70;;;;;;;;;;5096170;28;20036;-92
2022/01/23 07:10:54;;;;;;;16.42;7.78;;;;;;;;;;5097065;28;20036;-92
2022/01/23 07:13:20;;;;;;;14.02;7.93;;;;;;;;;;5104318;28;20387;-92
2022/01/23 07:15:47;;;;;;;20.30;9.43;;;;;;;;;;5085705;28;20048;-92
2022/01/23 07:18:15;;;;;;;14.32;7.97;;;;;;;;;;5116373;27;20036;-91
2022/01/23 07:20:42;;;;;;;19.60;9.45;;;;;;;;;;5124246;27;20040;-92
2022/01/23 07:23:08;;;;;;;15.73;7.85;;;;;;;;;;5120099;27;20032;-92
2022/01/23 07:25:34;;;;;;;18.35;8.60;;;;;;;;;;5094703;28;20043;-93
2022/01/23 07:28:02;;;;;;;15.60;8.38;;;;;;;;;;5094174;28;20042;-93
2022/01/23 07:32:55;;;;;;;20.88;9.35;;;;;;;;;;5095883;28;20051;-93
2022/01/23 07:35:21;;;;;;;16.63;8.95;;;;;;;;;;5077929;28;20040;-92
2022/01/23 07:37:48;;;;;;;22.88;9.35;;;;;;;;;;5079406;28;20028;-93
2022/01/23 07:40:14;;;;;;;18.95;9.07;;;;;;;;;;5082803;28;20032;-92
2022/01/23 07:42:41;;;;;;;15.75;8.48;;;;;;;;;;5098423;28;20065;-92
2022/01/23 07:45:07;;;;;;;16.05;7.90;;;;;;;;;;5080387;28;20039;-93
2022/01/23 07:47:33;;;;;;;18.42;8.80;;;;;;;;;;5091341;28;20032;-94
2022/01/23 07:50:01;;;;;;;15.88;7.90;;;;;;;;;;5091847;28;20067;-94
2022/01/23 07:52:30;;;;;;;17.35;8.25;;;;;;;;;;5102673;28;20522;-94
2022/01/23 07:54:57;;;;;;;18.80;8.95;;;;;;;;;;5084444;28;20043;-93
2022/01/23 07:57:23;;;;;;;15.60;8.15;;;;;;;;;;5099984;28;20040;-94
2022/01/23 07:59:50;;;;;;;15.30;8.85;;;;;;;;;;5107931;28;20043;-94
2022/01/23 08:02:16;;;;;;;14.88;7.78;;;;;;;;;;5113165;28;20039;-95
2022/01/23 08:04:42;;;;;;;17.42;8.05;;;;;;;;;;5079626;28;20040;-94
2022/01/23 08:07:11;;;;;;;19.27;8.10;;;;;;;;;;5115176;28;20044;-94
2022/01/23 08:09:37;;;;;;;18.00;7.93;;;;;;;;;;5098063;28;20089;-94
2022/01/23 08:12:04;;;;;;;17.02;7.38;;;;;;;;;;5109889;28;20070;-94
2022/01/23 08:14:30;;;;;;;18.35;8.35;;;;;;;;;;5097626;28;20041;-93
2022/01/23 08:16:57;;;;;;;18.83;9.02;;;;;;;;;;5078387;28;20562;-93
2022/01/23 08:19:23;;;;;;;17.55;8.10;;;;;;;;;;5094588;28;20190;-93
2022/01/23 08:21:49;;;;;;;13.48;7.25;;;;;;;;;;5094671;28;20491;-93
2022/01/23 08:24:16;;;;;;;17.92;8.02;;;;;;;;;;5097582;28;20043;-93
2022/01/23 08:26:42;;;;;;;18.38;8.50;;;;;;;;;;5097822;28;20046;-93
2022/01/23 08:29:09;;;;;;;15.20;7.22;;;;;;;;;;5063559;28;20043;-93
2022/01/23 08:31:36;;;;;;;15.90;7.80;;;;;;;;;;5080155;28;20423;-93
2022/01/23 08:34:17;;;;;;;15.65;7.18;;;;;;;;;;5095914;28;20085;-92
2022/01/23 08:36:43;;;;;;;13.23;6.68;;;;;;;;;;5077659;28;20043;-93
2022/01/23 08:39:10;;;;;;;13.75;5.90;;;;;;;;;;5080094;28;20036;-93
2022/01/23 08:41:51;;;;;;;12.93;5.93;;;;;;;;;;5077017;28;20032;-91
2022/01/23 08:44:18;;;;;;;12.93;6.20;;;;;;;;;;5105402;28;20503;-92
2022/01/23 08:46:45;;;;;;;10.15;5.20;;;;;;;;;;5055923;28;20048;-93
2022/01/23 08:49:11;;;;;;;10.38;5.00;;;;;;;;;;5106291;28;20075;-93
2022/01/23 08:51:37;;;;;;;12.10;5.22;;;;;;;;;;5112227;27;20051;-93
2022/01/23 08:54:04;;;;;;;11.80;4.55;;;;;;;;;;5093645;28;20510;-93
2022/01/23 08:56:30;;;;;;;10.20;4.75;;;;;;;;;;5092410;28;20406;-92
2022/01/23 08:58:57;;;;;;;9.20;4.07;;;;;;;;;;5091638;28;20136;-93
2022/01/23 09:01:24;;;;;;;8.48;3.42;;;;;;;;;;5076524;28;20387;-93
2022/01/23 09:03:50;;;;;;;7.65;3.30;;;;;;;;;;5092549;28;20032;-93
2022/01/23 09:06:16;;;;;;;8.43;4.03;;;;;;;;;;5076485;28;20039;-93
2022/01/23 09:08:43;;;;;;;10.02;4.07;;;;;;;;;;5095794;28;20036;-93
2022/01/23 09:14:15;;;;;;;9.07;4.35;;;;;;;;;;5036736;28;20084;-92
2022/01/23 09:16:42;;;;;;;8.05;4.22;;;;;;;;;;5035251;28;20044;-92
2022/01/23 09:19:09;;;;;;;9.88;4.97;;;;;;;;;;5046513;28;20087;-93
2022/01/23 09:21:35;;;;;;;10.60;4.72;;;;;;;;;;5093811;28;20110;-93
2022/01/23 09:24:02;;;;;;;9.80;4.80;;;;;;;;;;5093667;28;20078;-93
2022/01/23 09:26:28;;;;;;;9.35;4.90;;;;;;;;;;5092966;28;20046;-92
2022/01/23 09:28:57;;;;;;;12.00;5.15;;;;;;;;;;5077149;28;20032;-93
2022/01/23 09:31:29;;;;;;;9.80;4.97;;;;;;;;;;5074979;28;20040;-92
2022/01/23 09:33:56;;;;;;;9.77;5.18;;;;;;;;;;5092910;28;20047;-92
2022/01/23 09:36:22;;;;;;;9.65;4.55;;;;;;;;;;5100246;28;20036;-93
2022/01/23 09:38:48;;;;;;;11.13;5.50;;;;;;;;;;5094560;28;20036;-92
2022/01/23 09:41:18;;;;;;;11.73;5.28;;;;;;;;;;5100839;28;20036;-92
2022/01/23 09:43:46;;;;;;;10.15;5.07;;;;;;;;;;5108191;27;20039;-93
2022/01/23 09:46:13;;;;;;;10.55;5.32;;;;;;;;;;5083955;28;20118;-91
2022/01/23 09:48:48;;;;;;;13.18;5.65;;;;;;;;;;5075495;28;20031;-91
2022/01/23 09:51:33;;;;;;;12.18;6.35;;;;;;;;;;5072197;28;20633;-91
2022/01/23 09:53:59;;;;;;;11.38;5.25;;;;;;;;;;5091289;28;20028;-91
2022/01/23 09:56:29;;;;;;;11.15;5.70;;;;;;;;;;5068378;28;20047;-92
2022/01/23 09:58:57;;;;;;;11.02;6.00;;;;;;;;;;5103885;28;20048;-92
2022/01/23 10:01:23;;;;;;;10.88;5.40;;;;;;;;;;5086937;28;20039;-92
2022/01/23 10:03:53;;;;;;;11.38;6.60;;;;;;;;;;5071324;28;20047;-92
2022/01/23 10:06:19;;;;;;;11.38;5.85;;;;;;;;;;5104120;28;20040;-92
2022/01/23 10:08:46;;;;;;;11.18;6.35;;;;;;;;;;5108337;28;20056;-92
2022/01/23 10:11:14;;;;;;;12.57;7.60;;;;;;;;;;5107537;28;20127;-92
2022/01/23 10:13:41;;;;;;;11.77;6.10;;;;;;;;;;5090681;28;20038;-92
2022/01/23 10:16:08;;;;;;;12.13;6.88;;;;;;;;;;5088151;28;20610;-93
2022/01/23 10:18:34;;;;;;;13.18;6.10;;;;;;;;;;5076828;28;20071;-92
2022/01/23 10:21:00;;;;;;;12.10;5.93;;;;;;;;;;5072024;28;20032;-93
2022/01/23 10:23:27;;;;;;;11.02;6.03;;;;;;;;;;5091275;28;20123;-93
2022/01/23 10:25:54;;;;;;;10.38;5.57;;;;;;;;;;5095841;28;20039;-92
2022/01/23 10:28:22;;;;;;;12.10;5.78;;;;;;;;;;5101240;28;20074;-93
2022/01/23 10:30:51;;;;;;;10.23;5.38;;;;;;;;;;5110213;28;20051;-92
2022/01/23 10:33:20;;;;;;;10.70;5.90;;;;;;;;;;5064508;28;20041;-92
2022/01/23 10:35:54;;;;;;;11.63;5.93;;;;;;;;;;5076874;28;20040;-90
2022/01/23 10:38:21;;;;;;;10.18;5.70;;;;;;;;;;5128907;27;20426;-93
2022/01/23 10:41:01;;;;;;;9.65;5.47;;;;;;;;;;5115430;28;20036;-93
2022/01/23 10:46:46;;;;;;;10.20;5.75;;;;;;;;;;5108366;28;20044;-93
2022/01/23 10:49:13;;;;;;;10.75;5.22;;;;;;;;;;5106901;28;20081;-92
2022/01/23 10:51:39;;;;;;;6.43;2.40;;;;;;;;;;5120501;28;20043;-93
2022/01/23 10:54:09;;;;;;;4.97;1.98;;;;;;;;;;5085785;28;20052;-94
2022/01/23 10:56:59;;;;;;;4.63;1.85;;;;;;;;;;5123223;27;20124;-93
2022/01/23 10:59:26;;;;;;;2.78;1.35;;;;;;;;;;5077457;28;20048;-91
2022/01/23 11:02:05;;;;;;;3.83;1.40;;;;;;;;;;5100554;28;20093;-94
2022/01/23 11:04:39;;;;;;;3.50;1.23;;;;;;;;;;5110251;28;20048;-94
2022/01/23 11:07:07;;;;;;;1.53;0.90;;;;;;;;;;5102476;28;20392;-94
2022/01/23 11:09:37;;;;;;;3.88;1.40;;;;;;;;;;5099019;28;20641;-93
2022/01/23 11:17:53;;;;;;;0.95;0.50;;;;;;;;;;5118706;27;20061;-93
2022/01/23 11:20:33;;;;;;;1.10;0.50;;;;;;;;;;5088606;28;20375;-91
2022/01/23 11:23:04;;;;;;;1.77;0.60;;;;;;;;;;5091923;28;20032;-92
2022/01/23 11:25:30;;;;;;;1.13;0.50;;;;;;;;;;5096440;28;20074;-93
2022/01/23 11:28:03;;;;;;;0.85;0.50;;;;;;;;;;5077999;28;20157;-93
2022/01/23 11:30:39;;;;;;;1.98;0.68;;;;;;;;;;5076563;28;20042;-92
2022/01/23 11:33:05;;;;;;;2.55;0.70;;;;;;;;;;5110129;28;20250;-92
2022/01/23 11:35:31;;;;;;;5.47;0.80;;;;;;;;;;5078430;28;20032;-93
2022/01/23 11:37:58;;;;;;;2.22;0.50;;;;;;;;;;5087850;28;20027;-92
2022/01/23 11:53:55;;;;;;;1.65;0.70;;;;;;;;;;5115208;28;20052;-93
2022/01/23 11:56:33;;;;;;;0.50;0.40;;;;;;;;;;5092419;28;20046;-92
2022/01/23 11:59:21;;;;;;;1.48;0.63;;;;;;;;;;5091978;28;20040;-92
2022/01/23 12:01:48;;;;;;;1.98;0.50;;;;;;;;;;5108289;28;20094;-92
2022/01/23 12:04:22;;;;;;;0.50;0.40;;;;;;;;;;5111632;28;20181;-92
2022/01/23 12:07:07;;;;;;;1.40;0.55;;;;;;;;;;5095982;28;20035;-92
2022/01/23 12:09:33;;;;;;;2.22;0.75;;;;;;;;;;5127585;27;20032;-92
2022/01/23 12:12:23;;;;;;;2.17;0.70;;;;;;;;;;5108301;27;20032;-91
2022/01/23 12:17:20;;;;;;;1.55;0.70;;;;;;;;;;5095066;28;20079;-93
2022/01/23 12:19:58;;;;;;;3.22;0.60;;;;;;;;;;5080381;28;20119;-93
2022/01/23 12:22:29;;;;;;;1.63;0.70;;;;;;;;;;5110472;27;20073;-93
2022/01/23 12:24:57;;;;;;;1.48;0.50;;;;;;;;;;5113761;27;20051;-93
2022/01/23 12:27:27;;;;;;;1.48;0.70;;;;;;;;;;5094089;28;20125;-93
2022/01/23 12:30:10;;;;;;;1.88;0.88;;;;;;;;;;5090928;28;20047;-93
2022/01/23 12:32:37;;;;;;;2.03;0.88;;;;;;;;;;5108201;28;20151;-93
2022/01/23 12:35:07;;;;;;;2.65;0.70;;;;;;;;;;5074920;28;20046;-93
2022/01/23 12:37:52;;;;;;;1.85;0.90;;;;;;;;;;5110781;27;20032;-93
2022/01/23 12:40:18;;;;;;;;;;;;;;;;;;5084200;28;20050;-93
2022/01/23 12:43:03;;;;;;;3.17;0.70;;;;;;;;;;5073537;28;20448;-93
2022/01/23 12:45:42;;;;;;;1.45;0.90;;;;;;;;;;5124994;27;20063;-93
2022/01/23 12:48:31;;;;;;;3.10;1.25;;;;;;;;;;5091345;28;20043;-93
2022/01/23 12:50:59;;;;;;;1.65;0.90;;;;;;;;;;5090826;28;20047;-93
2022/01/23 12:53:41;;;;;;;2.38;0.80;;;;;;;;;;5090495;28;20247;-93
2022/01/23 12:56:12;;;;;;;2.33;0.90;;;;;;;;;;5106870;28;20040;-93
2022/01/23 12:58:39;;;;;;;5.10;1.00;;;;;;;;;;5090871;28;20119;-93
2022/01/23 13:01:07;;;;;;;2.80;1.00;;;;;;;;;;5125207;27;20054;-93
2022/01/23 13:03:36;;;;;;;3.05;1.20;;;;;;;;;;5089305;28;20043;-93
2022/01/23 13:06:06;;;;;;;2.45;1.10;;;;;;;;;;5089925;28;20044;-93
2022/01/23 13:08:36;;;;;;;2.35;1.15;;;;;;;;;;5107088;28;20309;-93
2022/01/23 13:13:47;;;;;;;3.25;1.10;;;;;;;;;;5089130;28;20048;-92
2022/01/23 13:27:57;;;;;;;4.53;1.83;;;;;;;;;;5092553;28;20384;-91
2022/01/23 13:30:16;;;;;;;5.55;1.80;;;;;;;;;;5092610;28;20411;-93
2022/01/23 13:32:46;;;;;;;5.93;2.10;;;;;;;;;;5092344;28;20054;-93
2022/01/23 13:35:15;;;;;;;4.43;1.92;;;;;;;;;;5108558;28;20070;-94
2022/01/23 13:37:46;;;;;;;4.28;1.95;;;;;;;;;;5108632;28;20043;-93
2022/01/23 13:40:15;;;;;;;3.85;1.90;;;;;;;;;;5091086;28;20120;-93
2022/01/23 13:59:29;;;;;;;6.07;2.47;;;;;;;;;;5091588;28;20050;-94
2022/01/23 14:04:27;;;;;;;5.57;2.00;;;;;;;;;;5092256;28;20052;-93
2022/01/23 14:06:54;;;;;;;3.97;1.83;;;;;;;;;;5098691;28;20044;-92
2022/01/23 14:09:22;;;;;;;4.05;1.70;;;;;;;;;;5094289;28;20298;-93
2022/01/23 14:11:48;;;;;;;3.60;1.52;;;;;;;;;;5105578;28;20506;-93
2022/01/23 14:14:17;;;;;;;3.05;1.40;;;;;;;;;;5113647;28;20479;-93
2022/01/23 14:16:44;;;;;;;3.15;1.20;;;;;;;;;;5096672;28;20079;-92
2022/01/23 14:19:15;;;;;;;4.07;1.20;;;;;;;;;;5102871;28;20067;-92
2022/01/23 14:21:41;;;;;;;3.38;1.02;;;;;;;;;;5078708;28;20036;-93
2022/01/23 14:24:08;;;;;;;2.55;1.35;;;;;;;;;;5079084;28;20082;-93
2022/01/23 14:26:34;;;;;;;4.38;1.20;;;;;;;;;;5096256;28;20405;-93
2022/01/23 14:29:05;;;;;;;3.25;1.30;;;;;;;;;;5095327;28;20040;-93
2022/01/23 14:31:39;;;;;;;4.95;2.17;;;;;;;;;;5095251;28;20608;-93
2022/01/23 14:34:23;;;;;;;2.65;1.40;;;;;;;;;;5094210;28;20056;-93
2022/01/23 14:36:56;;;;;;;2.00;1.10;;;;;;;;;;5094449;28;20062;-93
2022/01/23 14:39:24;;;;;;;2.85;1.10;;;;;;;;;;5099059;28;20082;-93
2022/01/23 14:41:50;;;;;;;2.10;0.80;;;;;;;;;;5074733;28;20480;-93
2022/01/23 14:44:20;;;;;;;2.13;1.00;;;;;;;;;;5073624;28;20091;-93
2022/01/23 14:46:47;;;;;;;2.88;1.08;;;;;;;;;;5091525;28;20036;-93
2022/01/23 14:49:21;;;;;;;2.53;1.10;;;;;;;;;;5093340;28;20032;-93
2022/01/23 14:51:48;;;;;;;3.72;1.10;;;;;;;;;;5093216;28;20040;-93
2022/01/23 14:54:14;;;;;;;2.28;1.10;;;;;;;;;;5092265;28;20045;-94
2022/01/23 14:56:40;;;;;;;2.40;1.30;;;;;;;;;;5089737;28;20054;-93
2022/01/23 14:59:10;;;;;;;3.75;1.50;;;;;;;;;;5088679;28;20028;-94
2022/01/23 15:01:37;;;;;;;2.70;1.10;;;;;;;;;;5077292;28;20047;-93
2022/01/23 15:04:08;;;;;;;4.13;1.02;;;;;;;;;;5094630;28;20119;-92
2022/01/23 15:06:35;;;;;;;4.47;1.50;;;;;;;;;;5098873;28;20075;-93
2022/01/23 15:09:04;;;;;;;2.13;1.08;;;;;;;;;;5101607;28;20058;-93
2022/01/23 15:11:30;;;;;;;2.80;1.23;;;;;;;;;;5093917;28;20062;-93
2022/01/23 15:13:56;;;;;;;3.30;1.00;;;;;;;;;;5097365;28;20068;-93
2022/01/23 15:16:23;;;;;;;2.50;0.98;;;;;;;;;;5096640;28;20047;-93
2022/01/23 15:18:49;;;;;;;2.90;0.95;;;;;;;;;;5094678;28;20032;-92
2022/01/23 15:21:15;;;;;;;3.10;1.08;;;;;;;;;;5116257;27;20093;-93
2022/01/23 15:23:42;;;;;;;3.58;1.23;;;;;;;;;;5100882;28;20039;-93
2022/01/23 15:26:08;;;;;;;2.55;1.10;;;;;;;;;;5072543;28;20040;-93
2022/01/23 15:28:34;;;;;;;4.50;1.50;;;;;;;;;;5092066;28;20517;-92
2022/01/23 15:31:00;;;;;;;3.83;1.30;;;;;;;;;;5094677;28;20430;-93
2022/01/23 15:33:26;;;;;;;3.88;1.30;;;;;;;;;;5106470;28;20177;-92
2022/01/23 15:35:53;;;;;;;2.17;1.10;;;;;;;;;;5112340;27;20125;-93
2022/01/23 15:38:21;;;;;;;16.05;6.10;;;;;;;;;;5110152;28;20480;-93
2022/01/23 15:40:50;;;;;;;10.90;4.15;;;;;;;;;;5092914;28;20047;-94
2022/01/23 15:43:16;;;;;;;8.35;3.00;;;;;;;;;;5094544;28;20044;-93
2022/01/23 15:45:43;;;;;;;3.63;1.25;;;;;;;;;;5096059;28;20043;-95
2022/01/23 15:48:10;;;;;;;2.97;1.15;;;;;;;;;;5077667;28;20044;-93
2022/01/23 15:50:36;;;;;;;3.78;1.08;;;;;;;;;;5094094;28;20036;-93
2022/01/23 15:53:02;;;;;;;2.20;1.00;;;;;;;;;;5075079;28;20071;-94
2022/01/23 15:55:28;;;;;;;2.42;1.10;;;;;;;;;;5075726;28;20051;-93
2022/01/23 15:57:55;;;;;;;4.13;1.10;;;;;;;;;;5092440;28;20499;-93
2022/01/23 16:00:22;;;;;;;3.08;1.10;;;;;;;;;;5088481;28;20658;-92
2022/01/23 16:02:48;;;;;;;4.57;1.58;;;;;;;;;;5110538;27;20085;-93
2022/01/23 16:05:15;;;;;;;3.35;1.48;;;;;;;;;;5094914;28;20040;-91
2022/01/23 16:07:41;;;;;;;4.05;1.33;;;;;;;;;;5121008;27;20082;-92
2022/01/23 16:10:08;;;;;;;5.25;2.15;;;;;;;;;;5083579;28;20122;-93
2022/01/23 16:12:37;;;;;;;4.85;2.15;;;;;;;;;;5083820;28;20103;-93
2022/01/23 16:15:04;;;;;;;6.22;2.80;;;;;;;;;;5100395;28;20161;-93
2022/01/23 16:17:30;;;;;;;7.10;3.10;;;;;;;;;;5090191;28;20036;-93
2022/01/23 16:19:58;;;;;;;7.10;3.33;;;;;;;;;;5110423;28;20056;-93
2022/01/23 16:22:24;;;;;;;8.60;4.53;;;;;;;;;;5106716;28;20040;-93
2022/01/23 16:24:50;;;;;;;11.00;5.57;;;;;;;;;;5110463;28;20046;-94
2022/01/23 16:27:17;;;;;;;10.93;6.50;;;;;;;;;;5093604;28;20101;-94
2022/01/23 16:29:43;;;;;;;12.40;5.93;;;;;;;;;;5093872;28;20093;-93
2022/01/23 16:32:18;;;;;;;10.27;5.03;;;;;;;;;;5076564;28;20530;-94
2022/01/23 16:34:47;;;;;;;6.95;3.78;;;;;;;;;;5113899;28;20036;-94
2022/01/23 16:37:13;;;;;;;6.32;2.97;;;;;;;;;;5104025;28;20043;-92
2022/01/23 16:39:40;;;;;;;7.40;3.17;;;;;;;;;;5103844;28;20028;-92
2022/01/23 16:42:06;;;;;;;4.22;2.00;;;;;;;;;;5081420;28;20071;-93
2022/01/23 16:44:32;;;;;;;5.47;2.30;;;;;;;;;;5107874;28;20060;-94
2022/01/23 16:46:58;;;;;;;6.63;2.78;;;;;;;;;;5106013;28;20384;-94
2022/01/23 16:49:25;;;;;;;4.10;1.90;;;;;;;;;;5108129;28;20432;-94
2022/01/23 16:51:51;;;;;;;3.08;1.67;;;;;;;;;;5123604;27;20038;-94
2022/01/23 16:54:17;;;;;;;4.10;1.88;;;;;;;;;;5081920;28;20032;-94
2022/01/23 16:56:43;;;;;;;2.95;1.65;;;;;;;;;;5092742;28;20043;-94
2022/01/23 16:59:11;;;;;;;4.40;1.60;;;;;;;;;;5103456;28;20040;-88
2022/01/23 17:01:37;;;;;;;4.70;1.80;;;;;;;;;;5093671;28;20040;-93
2022/01/23 17:04:04;;;;;;;6.72;2.17;;;;;;;;;;5116233;27;20047;-93
2022/01/23 17:06:31;;;;;;;4.20;1.60;;;;;;;;;;5073200;28;20115;-93
2022/01/23 17:08:58;;;;;;;6.78;2.00;;;;;;;;;;5089726;28;20046;-92
2022/01/23 17:11:25;;;;;;;3.95;1.50;;;;;;;;;;5099681;27;20093;-92
2022/01/23 17:13:51;;;;;;;3.85;1.67;;;;;;;;;;5088547;28;20086;-92
2022/01/23 17:16:18;;;;;;;4.80;1.90;;;;;;;;;;5091631;28;20408;-92
2022/01/23 17:18:44;;;;;;;5.15;1.60;;;;;;;;;;5090690;28;20036;-92
2022/01/23 17:21:11;;;;;;;3.83;1.55;;;;;;;;;;5098183;28;20039;-92
2022/01/23 17:23:37;;;;;;;2.90;1.50;;;;;;;;;;5093030;28;20059;-93
2022/01/23 17:26:04;;;;;;;4.28;1.70;;;;;;;;;;5082832;28;20105;-92
2022/01/23 17:28:30;;;;;;;5.38;1.80;;;;;;;;;;5083967;28;20044;-92
2022/01/23 17:30:57;;;;;;;3.33;1.63;;;;;;;;;;5091608;28;20043;-93
2022/01/23 17:33:23;;;;;;;3.08;1.58;;;;;;;;;;5098147;28;20516;-92
2022/01/23 17:35:50;;;;;;;3.53;1.70;;;;;;;;;;5107413;27;20093;-92
2022/01/23 17:38:16;;;;;;;4.68;1.83;;;;;;;;;;5100176;28;20032;-91
2022/01/23 17:40:45;;;;;;;5.30;1.75;;;;;;;;;;5102586;28;20113;-92
2022/01/23 17:43:11;;;;;;;4.55;1.80;;;;;;;;;;5089877;28;20036;-92
2022/01/23 17:46:00;;;;;;;4.65;1.75;;;;;;;;;;5106142;28;20040;-92
2022/01/23 17:48:46;;;;;;;3.78;1.90;;;;;;;;;;5087420;28;20063;-92
2022/01/23 17:51:13;;;;;;;2.65;1.65;;;;;;;;;;5122316;27;20051;-92
2022/01/23 17:53:40;;;;;;;4.63;1.92;;;;;;;;;;5093333;28;20043;-93
2022/01/23 17:56:06;;;;;;;5.47;1.77;;;;;;;;;;5118390;27;20324;-91
2022/01/23 17:58:32;;;;;;;3.72;2.00;;;;;;;;;;5088913;28;20507;-92
2022/01/23 18:00:59;;;;;;;4.88;1.90;;;;;;;;;;5105126;28;20085;-91
2022/01/23 18:03:25;;;;;;;4.55;1.90;;;;;;;;;;5087895;28;20036;-92
2022/01/23 18:05:52;;;;;;;3.75;1.95;;;;;;;;;;5104801;28;20047;-92
2022/01/23 18:08:19;;;;;;;3.80;2.03;;;;;;;;;;5087661;28;20039;-92
2022/01/23 18:10:46;;;;;;;5.18;1.77;;;;;;;;;;5087761;28;20492;-92
2022/01/23 18:13:20;;;;;;;4.25;1.60;;;;;;;;;;5087741;28;20376;-91
2022/01/23 18:15:46;;;;;;;5.73;1.70;;;;;;;;;;5087698;28;20515;-91